Time;durP1;ratioP1;P1;durP2;ratioP2;P2;SDS_P1;SDS_P2;PMS_P1;PMS_P2;Temp;Humidity;BMP_temperature;BMP_pressure;BME280_temperature;BME280_humidity;BME280_pressure;Samples;Min_cycle;Max_cycle;Signal;HPM_P1;HPM_P2
2023/11/27 00:01:41;;;;;;;2.92;2.20;;;15.30;65.80;;;;;;5053528;28;20190;-68
2023/11/27 00:04:07;;;;;;;2.30;2.10;;;15.30;65.60;;;;;;5054096;28;20172;-68
2023/11/27 00:06:32;;;;;;;2.97;2.47;;;15.30;65.70;;;;;;5053796;28;20174;-69
2023/11/27 00:08:58;;;;;;;3.33;2.53;;;15.30;65.40;;;;;;5053256;28;20250;-69
2023/11/27 00:11:23;;;;;;;3.17;2.75;;;15.30;65.50;;;;;;5053506;28;20179;-70
2023/11/27 00:13:49;;;;;;;3.55;2.38;;;15.30;65.40;;;;;;5053746;28;20167;-70
2023/11/27 00:16:14;;;;;;;2.78;2.28;;;15.30;65.30;;;;;;5052888;28;20257;-69
2023/11/27 00:18:40;;;;;;;2.88;2.30;;;15.20;65.30;;;;;;5053952;28;20175;-69
2023/11/27 00:21:05;;;;;;;3.05;2.72;;;15.20;65.20;;;;;;5053810;28;20652;-69
2023/11/27 00:23:31;;;;;;;2.80;2.50;;;15.20;65.20;;;;;;5052729;28;20218;-70
2023/11/27 00:25:57;;;;;;;2.30;2.10;;;15.20;65.20;;;;;;5053561;28;20619;-69
2023/11/27 00:28:22;;;;;;;2.47;2.00;;;15.20;65.20;;;;;;5053208;28;20637;-69
2023/11/27 00:30:48;;;;;;;3.85;2.65;;;15.20;65.50;;;;;;5052954;28;20201;-69
2023/11/27 00:33:14;;;;;;;3.58;2.70;;;15.20;65.30;;;;;;5053156;28;20207;-68
2023/11/27 00:35:40;;;;;;;2.65;2.22;;;15.20;65.20;;;;;;5053447;28;20249;-69
2023/11/27 00:38:05;;;;;;;3.72;2.80;;;15.20;65.50;;;;;;5052709;28;20171;-68
2023/11/27 00:40:31;;;;;;;2.47;2.25;;;15.20;65.20;;;;;;5052947;28;20664;-68
2023/11/27 00:42:56;;;;;;;3.35;2.55;;;15.20;65.30;;;;;;5053120;28;20649;-68
2023/11/27 00:45:22;;;;;;;2.35;2.15;;;15.10;65.30;;;;;;5052431;28;20634;-68
2023/11/27 00:47:47;;;;;;;3.13;2.92;;;15.10;65.40;;;;;;5053371;28;20247;-68
2023/11/27 00:50:13;;;;;;;4.55;2.42;;;15.10;65.30;;;;;;5053097;28;20274;-69
2023/11/27 00:52:38;;;;;;;3.63;2.40;;;15.10;65.00;;;;;;5052559;28;20258;-69
2023/11/27 00:55:04;;;;;;;2.80;2.00;;;15.10;65.10;;;;;;5053023;28;20179;-68
2023/11/27 00:57:30;;;;;;;2.45;2.25;;;15.10;65.10;;;;;;5051943;28;20225;-69
2023/11/27 00:59:56;;;;;;;2.90;2.70;;;15.10;65.00;;;;;;5053378;28;20240;-68
2023/11/27 01:02:21;;;;;;;2.03;1.92;;;15.10;65.00;;;;;;5052509;28;20182;-70
2023/11/27 01:04:47;;;;;;;3.00;2.10;;;15.10;65.10;;;;;;5052190;28;20175;-68
2023/11/27 01:07:12;;;;;;;3.60;2.30;;;15.10;65.10;;;;;;5052726;28;20187;-70
2023/11/27 01:09:39;;;;;;;3.25;2.33;;;15.00;65.00;;;;;;5052502;28;20179;-69
2023/11/27 01:12:05;;;;;;;2.28;2.08;;;15.00;65.00;;;;;;5051943;28;20185;-70
2023/11/27 01:14:31;;;;;;;2.90;2.15;;;15.00;65.00;;;;;;5052589;28;20179;-68
2023/11/27 01:16:56;;;;;;;2.40;2.20;;;15.10;65.10;;;;;;5052761;28;20211;-68
2023/11/27 01:19:22;;;;;;;3.15;2.65;;;15.00;65.10;;;;;;5051885;28;20244;-69
2023/11/27 01:21:48;;;;;;;4.13;2.40;;;15.00;65.00;;;;;;5052639;28;20182;-68
2023/11/27 01:24:14;;;;;;;2.55;2.20;;;15.00;64.90;;;;;;5052342;28;20175;-69
2023/11/27 01:26:39;;;;;;;2.97;2.47;;;15.00;65.10;;;;;;5051796;28;20186;-68
2023/11/27 01:29:05;;;;;;;3.83;2.28;;;15.00;65.10;;;;;;5052352;28;20194;-68
2023/11/27 01:31:30;;;;;;;4.38;3.03;;;15.00;65.10;;;;;;5052455;28;20258;-69
2023/11/27 01:33:56;;;;;;;3.13;2.80;;;15.00;65.00;;;;;;5051657;28;20175;-68
2023/11/27 01:36:21;;;;;;;2.92;2.65;;;15.00;65.10;;;;;;5052109;28;20211;-68
2023/11/27 01:38:47;;;;;;;3.05;2.55;;;15.00;65.00;;;;;;5052406;28;20176;-68
2023/11/27 01:41:13;;;;;;;2.35;2.15;;;15.00;64.80;;;;;;5051520;28;20185;-68
2023/11/27 01:43:38;;;;;;;5.40;2.72;;;15.00;65.10;;;;;;5052105;28;20584;-68
2023/11/27 01:46:23;;;;;;;2.47;2.20;;;14.90;64.80;;;;;;5052419;28;20179;-68
2023/11/27 01:48:53;;;;;;;2.33;2.10;;;14.90;64.90;;;;;;5051115;28;20175;-68
2023/11/27 01:51:19;;;;;;;2.50;2.30;;;14.90;65.00;;;;;;5050487;28;20356;-69
2023/11/27 01:53:45;;;;;;;2.53;2.33;;;14.90;65.00;;;;;;5051467;28;20291;-69
2023/11/27 01:56:10;;;;;;;2.58;2.00;;;14.90;64.90;;;;;;5051050;28;20218;-70
2023/11/27 01:58:36;;;;;;;2.25;2.05;;;14.90;65.00;;;;;;5051731;28;20186;-68
2023/11/27 02:01:02;;;;;;;2.92;2.42;;;14.90;64.90;;;;;;5051233;28;20175;-68
2023/11/27 02:03:28;;;;;;;2.45;2.25;;;14.90;64.90;;;;;;5051810;28;20257;-68
2023/11/27 02:05:54;;;;;;;2.72;2.47;;;14.90;64.90;;;;;;5051956;28;20215;-69
2023/11/27 02:08:22;;;;;;;2.40;2.08;;;14.90;64.90;;;;;;5050860;28;20253;-69
2023/11/27 02:10:48;;;;;;;3.90;2.50;;;14.80;64.50;;;;;;5034280;28;20317;-69
2023/11/27 02:13:14;;;;;;;3.42;2.50;;;14.80;64.90;;;;;;5051886;28;20242;-68
2023/11/27 02:15:40;;;;;;;2.78;2.38;;;14.80;64.90;;;;;;5051247;28;20203;-68
2023/11/27 02:18:05;;;;;;;2.33;2.13;;;14.80;65.00;;;;;;5051967;28;20194;-69
2023/11/27 02:20:31;;;;;;;2.60;2.08;;;14.80;64.90;;;;;;5050293;28;20164;-68
2023/11/27 02:22:56;;;;;;;2.60;2.35;;;14.80;65.00;;;;;;5051093;28;20215;-68
2023/11/27 02:25:22;;;;;;;2.40;2.15;;;14.80;64.80;;;;;;5051718;28;20264;-68
2023/11/27 02:27:50;;;;;;;4.10;2.70;;;14.80;64.80;;;;;;5051910;28;20549;-68
2023/11/27 02:30:19;;;;;;;3.35;2.67;;;14.80;64.70;;;;;;5050852;28;20266;-69
2023/11/27 02:32:46;;;;;;;3.03;2.47;;;14.90;64.90;;;;;;5052217;28;20940;-68
2023/11/27 02:35:12;;;;;;;2.85;2.33;;;14.80;65.00;;;;;;5051849;28;20197;-69
2023/11/27 02:37:37;;;;;;;2.95;2.22;;;14.80;64.80;;;;;;5050513;28;20665;-68
2023/11/27 02:40:04;;;;;;;2.67;2.22;;;14.80;64.90;;;;;;5051692;28;20689;-68
2023/11/27 02:42:30;;;;;;;2.55;2.35;;;14.70;64.70;;;;;;5051278;28;20775;-68
2023/11/27 02:44:56;;;;;;;2.25;2.05;;;14.80;64.70;;;;;;5051035;28;20179;-67
2023/11/27 02:47:22;;;;;;;2.85;2.25;;;14.80;64.80;;;;;;5051316;28;20677;-67
2023/11/27 02:49:48;;;;;;;3.28;2.38;;;14.80;64.90;;;;;;5051509;28;20282;-69
2023/11/27 02:52:14;;;;;;;2.55;1.85;;;14.80;64.80;;;;;;5050638;28;20310;-68
2023/11/27 02:54:39;;;;;;;3.47;2.55;;;14.70;64.80;;;;;;5051562;28;20622;-69
2023/11/27 02:57:05;;;;;;;3.13;2.80;;;14.70;64.70;;;;;;5050945;28;20233;-68
2023/11/27 02:59:30;;;;;;;3.17;2.63;;;14.70;64.60;;;;;;5051514;28;20622;-68
2023/11/27 03:01:56;;;;;;;2.70;2.10;;;14.70;64.90;;;;;;5053944;28;20611;-68
2023/11/27 03:04:25;;;;;;;2.05;1.95;;;14.70;64.80;;;;;;5054236;28;20233;-68
2023/11/27 03:06:51;;;;;;;2.47;2.25;;;14.70;64.90;;;;;;5055055;28;20179;-69
2023/11/27 03:09:17;;;;;;;3.00;2.33;;;14.70;64.80;;;;;;5054956;28;20171;-70
2023/11/27 03:11:43;;;;;;;3.53;2.50;;;14.70;64.90;;;;;;5054399;28;20194;-68
2023/11/27 03:14:08;;;;;;;2.63;2.38;;;14.70;64.60;;;;;;5055064;28;20167;-68
2023/11/27 03:16:34;;;;;;;2.83;2.55;;;14.70;64.70;;;;;;5054777;28;20619;-68
2023/11/27 03:18:59;;;;;;;2.78;2.28;;;14.70;64.90;;;;;;5054200;28;20580;-68
2023/11/27 03:21:25;;;;;;;4.32;2.55;;;14.60;64.80;;;;;;5054445;28;20673;-68
2023/11/27 03:23:51;;;;;;;2.50;2.30;;;14.60;64.80;;;;;;5054663;28;20214;-69
2023/11/27 03:26:18;;;;;;;2.33;2.20;;;14.60;64.90;;;;;;5054007;28;20273;-68
2023/11/27 03:28:43;;;;;;;2.47;2.17;;;14.60;65.00;;;;;;5054611;28;20182;-68
2023/11/27 03:31:09;;;;;;;2.47;2.28;;;14.60;65.00;;;;;;5054628;28;20179;-68
2023/11/27 03:33:34;;;;;;;2.47;2.28;;;14.60;64.90;;;;;;5053634;28;20198;-68
2023/11/27 03:36:00;;;;;;;3.22;2.60;;;14.60;65.00;;;;;;5054440;28;20246;-69
2023/11/27 03:38:25;;;;;;;3.53;2.80;;;14.60;64.90;;;;;;5054167;28;20171;-69
2023/11/27 03:40:51;;;;;;;3.80;2.95;;;14.60;65.00;;;;;;5053739;28;20179;-68
2023/11/27 03:43:17;;;;;;;2.55;2.20;;;14.60;64.80;;;;;;5054209;28;20171;-68
2023/11/27 03:45:42;;;;;;;3.95;3.00;;;14.60;65.00;;;;;;5054508;28;20184;-68
2023/11/27 03:48:08;;;;;;;2.85;2.30;;;14.60;64.90;;;;;;5053709;28;20175;-69
2023/11/27 03:50:33;;;;;;;2.63;2.42;;;14.60;64.80;;;;;;5053808;28;20211;-68
2023/11/27 03:53:02;;;;;;;2.30;2.10;;;14.60;64.90;;;;;;5054651;28;20179;-68
2023/11/27 03:55:27;;;;;;;2.55;1.95;;;14.60;65.50;;;;;;5053106;28;20672;-68
2023/11/27 03:57:53;;;;;;;3.25;2.30;;;14.60;65.00;;;;;;5054083;28;20183;-68
2023/11/27 04:00:18;;;;;;;3.42;2.50;;;14.60;65.10;;;;;;5053737;28;20168;-68
2023/11/27 04:02:44;;;;;;;4.03;2.85;;;14.60;65.10;;;;;;5053699;28;20171;-68
2023/11/27 04:05:10;;;;;;;2.45;2.00;;;14.50;65.10;;;;;;5053992;28;20171;-68
2023/11/27 04:07:35;;;;;;;2.80;2.20;;;14.50;65.10;;;;;;5052895;28;20533;-68
2023/11/27 04:10:01;;;;;;;3.47;2.33;;;14.60;65.10;;;;;;5054103;28;20178;-69
2023/11/27 04:12:27;;;;;;;2.78;2.58;;;14.50;65.10;;;;;;5053081;28;20609;-68
2023/11/27 04:14:52;;;;;;;3.70;2.10;;;14.50;65.10;;;;;;5053158;28;20186;-68
2023/11/27 04:17:18;;;;;;;2.88;2.45;;;14.50;65.20;;;;;;5053440;28;20252;-68
2023/11/27 04:19:46;;;;;;;2.83;2.10;;;14.50;65.00;;;;;;5053497;28;20179;-68
2023/11/27 04:22:12;;;;;;;2.42;2.22;;;14.50;65.20;;;;;;5053122;28;20183;-68
2023/11/27 04:24:37;;;;;;;3.30;2.03;;;14.50;65.20;;;;;;5053529;28;20171;-69
2023/11/27 04:27:03;;;;;;;2.40;2.20;;;14.50;66.10;;;;;;5053036;28;20225;-68
2023/11/27 04:29:28;;;;;;;2.63;2.30;;;14.50;65.20;;;;;;5052620;28;20232;-68
2023/11/27 04:31:54;;;;;;;4.43;2.25;;;14.50;65.00;;;;;;5053503;28;20229;-68
2023/11/27 04:34:20;;;;;;;2.50;2.30;;;14.50;65.10;;;;;;5053175;28;20585;-69
2023/11/27 04:36:45;;;;;;;4.72;2.58;;;14.50;65.20;;;;;;5052969;28;20765;-69
2023/11/27 04:39:11;;;;;;;2.97;2.17;;;14.50;65.30;;;;;;5053533;28;20175;-69
2023/11/27 04:41:42;;;;;;;2.20;2.00;;;14.50;65.40;;;;;;5053300;28;20179;-68
2023/11/27 04:44:08;;;;;;;2.90;2.10;;;14.50;65.30;;;;;;5052502;28;20325;-68
2023/11/27 04:46:33;;;;;;;4.10;2.22;;;14.50;65.20;;;;;;5052939;28;20190;-67
2023/11/27 04:48:59;;;;;;;2.13;1.92;;;14.40;65.30;;;;;;5053076;28;20171;-68
2023/11/27 04:51:25;;;;;;;2.33;2.13;;;14.40;65.30;;;;;;5051820;28;20246;-69
2023/11/27 04:53:50;;;;;;;3.60;2.20;;;14.40;65.20;;;;;;5053340;28;20186;-68
2023/11/27 04:56:16;;;;;;;2.13;1.92;;;14.50;65.40;;;;;;5052792;28;20203;-69
2023/11/27 04:58:41;;;;;;;1.90;1.80;;;14.50;65.50;;;;;;5052335;28;20174;-68
2023/11/27 05:01:07;;;;;;;2.17;1.98;;;14.40;65.30;;;;;;5052937;28;20175;-68
2023/11/27 05:03:32;;;;;;;2.03;1.65;;;14.40;65.40;;;;;;5052547;28;20229;-69
2023/11/27 05:05:58;;;;;;;2.42;2.08;;;14.40;65.30;;;;;;5052305;28;20182;-68
2023/11/27 05:08:25;;;;;;;3.17;2.40;;;14.40;65.30;;;;;;5052591;28;20171;-69
2023/11/27 05:10:51;;;;;;;3.67;2.03;;;14.40;65.40;;;;;;5052084;28;20179;-69
2023/11/27 05:13:16;;;;;;;2.30;2.10;;;14.40;65.50;;;;;;5052224;28;20167;-69
2023/11/27 05:15:42;;;;;;;2.92;2.10;;;14.40;65.50;;;;;;5052556;28;20225;-69
2023/11/27 05:18:08;;;;;;;2.05;1.85;;;14.40;65.40;;;;;;5052082;28;20179;-69
2023/11/27 05:20:33;;;;;;;2.00;1.80;;;14.40;65.60;;;;;;5052546;28;20179;-68
2023/11/27 05:23:02;;;;;;;2.72;1.88;;;14.40;65.60;;;;;;5052378;28;20171;-68
2023/11/27 05:25:28;;;;;;;2.15;1.90;;;14.40;65.50;;;;;;5051271;28;20210;-69
2023/11/27 05:27:54;;;;;;;1.90;1.80;;;14.40;65.60;;;;;;5052607;28;20171;-69
2023/11/27 05:30:21;;;;;;;1.90;1.50;;;14.30;65.50;;;;;;5052160;28;20551;-68
2023/11/27 05:32:47;;;;;;;2.08;1.67;;;14.40;65.50;;;;;;5051731;28;20547;-68
2023/11/27 05:35:13;;;;;;;2.30;1.77;;;14.30;65.40;;;;;;5052502;28;20187;-68
2023/11/27 05:37:38;;;;;;;1.80;1.70;;;14.30;65.50;;;;;;5052324;28;20206;-69
2023/11/27 05:40:06;;;;;;;1.88;1.50;;;14.40;65.50;;;;;;5051618;28;20622;-69
2023/11/27 05:42:39;;;;;;;2.40;1.85;;;14.40;65.50;;;;;;5052030;28;20186;-68
2023/11/27 05:45:10;;;;;;;3.30;2.47;;;14.40;65.60;;;;;;5052212;28;20186;-68
2023/11/27 05:47:39;;;;;;;1.70;1.55;;;14.30;65.70;;;;;;5051449;28;20187;-68
2023/11/27 05:50:05;;;;;;;2.92;2.30;;;14.30;65.70;;;;;;5052121;28;20551;-69
2023/11/27 05:52:31;;;;;;;2.42;1.67;;;14.30;65.80;;;;;;5052046;28;20190;-69
2023/11/27 05:54:57;;;;;;;1.83;1.60;;;14.30;65.70;;;;;;5051500;28;20186;-68
2023/11/27 05:57:22;;;;;;;1.63;1.52;;;14.30;65.80;;;;;;5051686;28;20673;-69
2023/11/27 05:59:48;;;;;;;1.45;1.35;;;14.30;65.60;;;;;;5052000;28;20170;-68
2023/11/27 06:02:14;;;;;;;2.08;1.80;;;14.70;66.10;;;;;;5051199;28;20179;-68
2023/11/27 06:04:43;;;;;;;1.73;1.63;;;14.30;65.70;;;;;;5052100;28;20174;-68
2023/11/27 06:07:08;;;;;;;2.15;2.05;;;14.30;65.90;;;;;;5051327;28;20175;-69
2023/11/27 06:09:34;;;;;;;2.13;1.83;;;14.30;65.80;;;;;;5051760;28;20182;-70
2023/11/27 06:11:59;;;;;;;1.70;1.60;;;14.30;65.60;;;;;;5051838;28;20175;-69
2023/11/27 06:14:25;;;;;;;1.50;1.40;;;14.40;65.50;;;;;;5050704;28;20197;-69
2023/11/27 06:16:50;;;;;;;2.53;1.60;;;14.40;65.30;;;;;;5051949;28;20302;-67
2023/11/27 06:19:16;;;;;;;2.65;1.55;;;14.60;65.60;;;;;;5051356;28;20175;-67
2023/11/27 06:21:42;;;;;;;1.40;1.30;;;14.70;65.50;;;;;;5050765;28;20258;-69
2023/11/27 06:24:08;;;;;;;1.25;1.15;;;14.80;65.30;;;;;;5051037;28;20171;-70
2023/11/27 06:26:34;;;;;;;1.52;1.42;;;15.00;65.10;;;;;;5051001;28;20722;-67
2023/11/27 06:28:59;;;;;;;1.63;1.52;;;15.20;64.80;;;;;;5050941;28;20174;-69
2023/11/27 06:31:25;;;;;;;1.33;1.23;;;15.30;64.60;;;;;;5051576;28;20171;-68
2023/11/27 06:33:51;;;;;;;1.88;1.50;;;15.50;64.40;;;;;;5051825;28;20647;-68
2023/11/27 06:36:16;;;;;;;1.35;1.25;;;15.60;64.10;;;;;;5053805;28;20214;-69
2023/11/27 06:38:42;;;;;;;1.75;1.40;;;15.80;63.60;;;;;;5055448;28;20240;-68
2023/11/27 06:41:07;;;;;;;1.42;1.33;;;15.90;63.10;;;;;;5055299;28;20650;-69
2023/11/27 06:43:34;;;;;;;1.40;1.30;;;16.10;62.80;;;;;;5054717;28;20645;-68
2023/11/27 06:45:59;;;;;;;1.20;1.10;;;16.20;62.40;;;;;;5055808;28;20171;-70
2023/11/27 06:48:25;;;;;;;2.25;1.52;;;16.20;62.20;;;;;;5055413;28;20181;-68
2023/11/27 06:50:50;;;;;;;1.50;1.38;;;16.30;62.40;;;;;;5054863;28;20353;-68
2023/11/27 06:53:17;;;;;;;2.00;1.60;;;16.30;62.10;;;;;;5055060;28;20258;-70
2023/11/27 06:55:42;;;;;;;1.52;1.40;;;16.30;62.10;;;;;;5055296;28;20171;-69
2023/11/27 06:58:08;;;;;;;1.00;1.00;;;16.30;62.10;;;;;;5054578;28;20190;-69
2023/11/27 07:00:34;;;;;;;1.83;1.52;;;16.30;62.20;;;;;;5055106;28;20183;-68
2023/11/27 07:02:59;;;;;;;1.35;1.25;;;16.30;62.10;;;;;;5055349;28;20189;-68
2023/11/27 07:05:25;;;;;;;1.80;1.25;;;16.40;62.10;;;;;;5054141;28;20622;-67
2023/11/27 07:07:50;;;;;;;1.00;1.00;;;16.40;62.10;;;;;;5055142;28;20171;-69
2023/11/27 07:10:16;;;;;;;1.15;1.08;;;16.50;61.80;;;;;;5054135;28;20171;-68
2023/11/27 07:12:42;;;;;;;1.15;1.00;;;16.60;61.60;;;;;;5054939;28;20183;-68
2023/11/27 07:15:14;;;;;;;2.75;1.42;;;16.80;61.20;;;;;;5055136;28;20176;-67
2023/11/27 07:17:40;;;;;;;1.35;1.10;;;16.90;61.00;;;;;;5054217;28;20233;-68
2023/11/27 07:20:06;;;;;;;2.70;1.27;;;17.10;60.60;;;;;;5054879;28;20725;-70
2023/11/27 07:22:34;;;;;;;1.30;1.10;;;17.20;60.30;;;;;;5054355;28;20269;-68
2023/11/27 07:25:00;;;;;;;1.35;1.25;;;17.40;59.90;;;;;;5053930;28;20614;-68
2023/11/27 07:27:26;;;;;;;2.28;1.08;;;17.40;59.70;;;;;;5054695;28;20167;-69
2023/11/27 07:29:52;;;;;;;1.23;1.13;;;17.50;59.50;;;;;;5054750;28;20214;-68
2023/11/27 07:32:21;;;;;;;1.20;1.10;;;17.50;59.50;;;;;;5053610;28;20199;-68
2023/11/27 07:34:46;;;;;;;1.30;1.20;;;17.60;59.40;;;;;;5054738;28;20257;-67
2023/11/27 07:37:12;;;;;;;1.20;1.10;;;17.60;59.40;;;;;;5054507;28;20230;-68
2023/11/27 07:39:37;;;;;;;1.10;1.10;;;17.60;59.30;;;;;;5053377;28;20206;-68
2023/11/27 07:42:03;;;;;;;0.93;0.82;;;17.60;59.50;;;;;;5053732;28;20221;-69
2023/11/27 07:44:29;;;;;;;1.63;1.15;;;17.60;59.50;;;;;;5054135;28;20175;-68
2023/11/27 07:46:54;;;;;;;0.93;0.80;;;17.50;59.60;;;;;;5052694;28;20175;-67
2023/11/27 07:49:20;;;;;;;1.48;1.10;;;17.50;59.60;;;;;;5053340;28;20171;-69
2023/11/27 07:51:45;;;;;;;1.05;1.05;;;17.40;59.70;;;;;;5053441;28;20732;-68
2023/11/27 07:54:11;;;;;;;0.80;0.80;;;17.40;59.90;;;;;;5053084;28;20167;-69
2023/11/27 07:56:37;;;;;;;0.75;0.75;;;17.30;59.90;;;;;;5053731;28;20210;-68
2023/11/27 07:59:03;;;;;;;0.90;0.90;;;17.30;59.90;;;;;;5054082;28;20183;-68
2023/11/27 08:01:29;;;;;;;1.77;1.27;;;17.30;60.00;;;;;;5053247;28;20179;-67
2023/11/27 08:03:54;;;;;;;1.75;1.17;;;17.30;60.10;;;;;;5054075;28;20217;-68
2023/11/27 08:06:20;;;;;;;0.70;0.70;;;17.30;60.10;;;;;;5053834;28;20682;-71
2023/11/27 08:08:45;;;;;;;1.05;1.02;;;17.30;60.10;;;;;;5053215;28;20660;-69
2023/11/27 08:11:11;;;;;;;1.15;1.00;;;17.30;60.20;;;;;;5054119;28;20171;-69
2023/11/27 08:13:39;;;;;;;1.05;0.85;;;17.30;60.00;;;;;;5052917;28;20217;-69
2023/11/27 08:16:05;;;;;;;0.80;0.80;;;17.40;60.10;;;;;;5052457;28;20223;-69
2023/11/27 08:18:31;;;;;;;2.03;1.10;;;17.30;60.10;;;;;;5053564;28;20228;-68
2023/11/27 08:20:56;;;;;;;1.15;1.05;;;17.30;60.20;;;;;;5053190;28;20550;-70
2023/11/27 08:23:24;;;;;;;1.50;1.20;;;17.30;60.10;;;;;;5053393;28;20653;-70
2023/11/27 08:25:49;;;;;;;1.73;0.80;;;17.30;60.00;;;;;;5053612;28;20633;-69
2023/11/27 08:28:15;;;;;;;1.30;1.20;;;17.30;60.00;;;;;;5052881;28;20186;-70
2023/11/27 08:30:41;;;;;;;1.45;1.00;;;17.30;60.10;;;;;;5053717;28;20244;-68
2023/11/27 08:33:07;;;;;;;0.90;0.90;;;17.30;60.10;;;;;;5053561;28;20167;-69
2023/11/27 08:35:33;;;;;;;1.02;1.02;;;17.30;60.90;;;;;;5052577;28;20178;-69
2023/11/27 08:37:59;;;;;;;0.85;0.85;;;17.40;60.10;;;;;;5053284;28;20226;-70
2023/11/27 08:40:25;;;;;;;1.23;0.93;;;17.40;60.00;;;;;;5052976;28;20240;-69
2023/11/27 08:42:50;;;;;;;0.70;0.70;;;17.40;59.90;;;;;;5052566;28;20183;-68
2023/11/27 08:45:16;;;;;;;0.90;0.75;;;17.40;60.10;;;;;;5052874;28;20171;-69
2023/11/27 08:47:44;;;;;;;1.20;0.90;;;17.30;60.00;;;;;;5053302;28;20185;-68
2023/11/27 08:50:13;;;;;;;1.27;0.90;;;17.40;60.00;;;;;;5052632;28;20190;-70
2023/11/27 08:52:39;;;;;;;1.15;1.00;;;17.30;60.10;;;;;;5053126;28;20220;-69
2023/11/27 08:55:08;;;;;;;0.60;0.60;;;17.30;60.20;;;;;;5053010;28;20171;-69
2023/11/27 08:57:33;;;;;;;1.13;0.75;;;17.30;60.10;;;;;;5051932;28;20602;-70
2023/11/27 09:00:01;;;;;;;0.80;0.80;;;17.30;60.30;;;;;;5052075;28;20178;-70
2023/11/27 09:02:28;;;;;;;2.55;1.10;;;17.30;60.20;;;;;;5052628;28;20179;-69
2023/11/27 09:04:55;;;;;;;1.25;1.15;;;17.30;60.20;;;;;;5052184;28;20167;-69
2023/11/27 09:07:20;;;;;;;0.80;0.80;;;17.30;60.30;;;;;;5052170;28;20657;-70
2023/11/27 09:09:46;;;;;;;0.98;0.80;;;17.30;60.20;;;;;;5052089;28;20183;-70
2023/11/27 09:12:11;;;;;;;0.73;0.73;;;17.30;60.30;;;;;;5051857;28;20183;-71
2023/11/27 09:14:37;;;;;;;1.17;0.75;;;17.30;60.30;;;;;;5052237;28;20224;-69
2023/11/27 09:17:02;;;;;;;1.25;0.82;;;17.20;60.40;;;;;;5052008;28;20228;-68
2023/11/27 09:19:28;;;;;;;1.10;1.00;;;17.10;60.50;;;;;;5052417;28;20537;-68
2023/11/27 09:21:55;;;;;;;0.68;0.68;;;17.10;60.80;;;;;;5052545;28;20179;-69
2023/11/27 09:24:20;;;;;;;0.80;0.80;;;17.00;61.10;;;;;;5051779;28;20178;-68
2023/11/27 09:26:46;;;;;;;1.17;1.08;;;16.90;61.30;;;;;;5052651;28;20175;-67
2023/11/27 09:29:11;;;;;;;0.88;0.88;;;16.80;61.30;;;;;;5052414;28;20178;-69
2023/11/27 09:31:37;;;;;;;0.80;0.80;;;16.80;61.30;;;;;;5051404;28;20269;-68
2023/11/27 09:34:03;;;;;;;1.00;0.90;;;16.80;61.30;;;;;;5052323;28;20175;-69
2023/11/27 09:36:30;;;;;;;0.73;0.73;;;16.80;61.20;;;;;;5051740;28;20261;-68
2023/11/27 09:38:55;;;;;;;1.20;0.90;;;16.80;61.40;;;;;;5051645;28;20253;-68
2023/11/27 09:41:27;;;;;;;1.10;0.90;;;16.90;61.40;;;;;;5051497;28;20183;-67
2023/11/27 09:43:56;;;;;;;1.20;1.10;;;16.90;61.50;;;;;;5052119;28;20229;-67
2023/11/27 09:46:24;;;;;;;2.53;1.00;;;16.90;61.60;;;;;;5051002;28;20236;-73
2023/11/27 09:48:50;;;;;;;1.88;0.98;;;16.90;61.70;;;;;;5034732;28;20171;-72
2023/11/27 09:51:16;;;;;;;1.08;0.80;;;16.90;61.60;;;;;;5050651;28;20234;-67
2023/11/27 09:53:46;;;;;;;1.20;0.70;;;16.90;61.80;;;;;;5048731;28;20179;-66
2023/11/27 09:56:11;;;;;;;1.85;0.90;;;16.90;61.80;;;;;;5060670;28;20191;-66
2023/11/27 09:58:42;;;;;;;1.75;1.02;;;16.90;62.00;;;;;;5058584;28;20178;-65
2023/11/27 10:01:10;;;;;;;2.33;1.38;;;17.00;62.10;;;;;;5069964;28;20275;-65
2023/11/27 10:03:37;;;;;;;1.80;0.98;;;16.70;62.40;;;;;;5056772;28;20630;-66
2023/11/27 10:06:06;;;;;;;2.30;1.23;;;16.70;62.50;;;;;;5034340;28;20182;-67
2023/11/27 10:08:31;;;;;;;1.55;0.80;;;16.70;62.60;;;;;;5050830;28;20179;-67
2023/11/27 10:10:57;;;;;;;1.65;0.85;;;16.70;62.60;;;;;;5054569;28;20185;-66
2023/11/27 10:13:34;;;;;;;1.73;0.98;;;16.70;62.50;;;;;;5070495;28;20190;-66
2023/11/27 10:16:02;;;;;;;1.20;0.90;;;16.70;62.40;;;;;;5071735;28;20216;-66
2023/11/27 10:18:28;;;;;;;1.48;0.93;;;16.80;62.40;;;;;;5071463;28;20671;-66
2023/11/27 10:20:54;;;;;;;1.75;0.85;;;16.70;62.40;;;;;;5071228;28;20174;-66
2023/11/27 10:23:20;;;;;;;1.05;0.88;;;16.70;62.40;;;;;;5071129;28;20186;-66
2023/11/27 10:25:54;;;;;;;1.70;0.77;;;16.70;62.50;;;;;;5071326;28;20179;-65
2023/11/27 10:28:21;;;;;;;1.85;0.82;;;16.60;62.50;;;;;;5063687;28;20183;-65
2023/11/27 10:30:47;;;;;;;1.30;0.80;;;16.60;62.80;;;;;;5051491;28;20750;-65
2023/11/27 10:33:13;;;;;;;0.80;0.80;;;16.50;63.10;;;;;;5051772;28;20262;-65
2023/11/27 10:35:41;;;;;;;0.90;0.88;;;16.50;63.50;;;;;;5032752;28;20266;-66
2023/11/27 10:38:17;;;;;;;1.05;0.80;;;16.50;63.10;;;;;;5051339;28;20245;-66
2023/11/27 10:40:42;;;;;;;1.13;0.88;;;16.40;63.10;;;;;;5051680;28;20236;-65
2023/11/27 10:43:09;;;;;;;2.38;0.90;;;16.50;63.20;;;;;;5049504;28;20649;-65
2023/11/27 10:45:35;;;;;;;1.05;0.73;;;16.50;63.10;;;;;;5050013;28;20255;-64
2023/11/27 10:48:01;;;;;;;1.55;0.90;;;16.50;63.10;;;;;;5050292;28;20540;-65
2023/11/27 10:50:27;;;;;;;1.05;0.93;;;16.40;63.10;;;;;;5050595;28;20232;-65
2023/11/27 10:52:52;;;;;;;1.20;1.08;;;16.40;63.10;;;;;;5033781;28;20183;-66
2023/11/27 10:55:19;;;;;;;1.42;0.90;;;16.30;63.30;;;;;;5032790;28;20544;-66
2023/11/27 10:57:45;;;;;;;0.70;0.70;;;16.30;63.40;;;;;;5051342;28;20297;-66
2023/11/27 11:00:18;;;;;;;2.25;0.88;;;16.30;63.50;;;;;;5050687;28;20179;-66
2023/11/27 11:02:49;;;;;;;0.93;0.88;;;16.30;63.40;;;;;;5059516;28;20185;-66
2023/11/27 11:05:26;;;;;;;0.82;0.80;;;16.30;63.60;;;;;;5070984;28;20636;-67
2023/11/27 11:07:52;;;;;;;0.90;0.90;;;16.30;63.50;;;;;;5071075;28;20182;-68
2023/11/27 11:10:18;;;;;;;1.58;1.00;;;16.30;63.50;;;;;;5070354;28;20174;-66
2023/11/27 11:12:44;;;;;;;1.13;1.02;;;16.40;63.50;;;;;;5070205;28;20179;-67
2023/11/27 11:15:13;;;;;;;1.42;1.30;;;16.40;63.50;;;;;;5053204;28;20256;-67
2023/11/27 11:17:54;;;;;;;1.80;1.05;;;16.30;63.30;;;;;;5069484;28;20297;-68
2023/11/27 11:20:34;;;;;;;1.10;1.00;;;16.30;63.40;;;;;;5070813;28;20174;-67
2023/11/27 11:23:15;;;;;;;1.70;1.25;;;16.20;63.40;;;;;;5072193;28;20478;-67
2023/11/27 11:26:24;;;;;;;1.23;1.13;;;16.20;63.50;;;;;;5073436;28;20636;-68
2023/11/27 11:29:11;;;;;;;1.42;1.33;;;16.20;63.70;;;;;;5074674;28;20174;-67
2023/11/27 11:31:47;;;;;;;1.58;1.27;;;16.20;63.80;;;;;;5072692;28;20182;-67
2023/11/27 11:34:20;;;;;;;1.85;1.40;;;16.20;63.80;;;;;;5074228;28;20174;-67
2023/11/27 11:36:46;;;;;;;2.28;1.30;;;16.20;63.80;;;;;;5074516;28;20245;-66
2023/11/27 11:39:16;;;;;;;1.85;1.38;;;16.20;63.70;;;;;;5055755;28;20249;-68
2023/11/27 11:41:41;;;;;;;1.60;1.50;;;16.10;63.60;;;;;;5074405;28;20205;-65
2023/11/27 11:44:16;;;;;;;5.68;2.13;;;16.20;63.80;;;;;;5056234;28;20170;-67
2023/11/27 11:46:42;;;;;;;6.20;2.85;;;16.10;64.00;;;;;;5073203;28;20273;-65
2023/11/27 11:49:09;;;;;;;4.97;2.75;;;16.10;64.10;;;;;;5074491;28;20231;-67
2023/11/27 11:51:35;;;;;;;4.70;2.20;;;16.10;64.20;;;;;;5055282;28;20236;-67
2023/11/27 11:54:01;;;;;;;4.35;2.80;;;16.10;64.20;;;;;;5073277;28;20186;-67
2023/11/27 11:56:27;;;;;;;3.75;2.30;;;16.10;64.10;;;;;;5073969;28;20202;-66
2023/11/27 11:58:56;;;;;;;2.40;1.80;;;16.10;64.40;;;;;;5073765;28;20170;-65
2023/11/27 12:01:25;;;;;;;2.33;2.00;;;16.10;63.70;;;;;;5074232;28;20178;-66
2023/11/27 12:03:51;;;;;;;3.05;1.90;;;16.10;63.70;;;;;;5054758;28;20370;-67
2023/11/27 12:06:16;;;;;;;3.80;2.42;;;16.10;63.90;;;;;;5034770;28;20676;-67
2023/11/27 12:08:49;;;;;;;2.03;1.75;;;16.10;64.20;;;;;;5054280;28;20171;-69
2023/11/27 12:11:15;;;;;;;3.38;1.95;;;16.00;64.10;;;;;;5053563;28;20638;-69
2023/11/27 12:13:43;;;;;;;3.25;2.22;;;16.00;64.20;;;;;;5053254;28;20198;-69
2023/11/27 12:16:12;;;;;;;4.80;1.75;;;16.00;64.20;;;;;;5053811;28;20569;-69
2023/11/27 12:18:49;;;;;;;4.90;2.20;;;16.00;64.10;;;;;;5053539;28;20213;-67
2023/11/27 12:21:16;;;;;;;2.28;1.63;;;16.00;64.00;;;;;;5053142;28;20178;-69
2023/11/27 12:23:43;;;;;;;2.80;1.90;;;16.00;63.90;;;;;;5052764;28;20224;-70
2023/11/27 12:26:16;;;;;;;4.18;1.83;;;16.00;63.70;;;;;;5053738;28;20182;-68
2023/11/27 12:28:45;;;;;;;3.00;1.75;;;16.00;63.50;;;;;;5052714;28;20226;-68
2023/11/27 12:31:14;;;;;;;5.75;1.77;;;16.00;63.60;;;;;;5053196;28;20249;-67
2023/11/27 12:33:39;;;;;;;3.92;2.10;;;16.00;63.60;;;;;;5036150;28;20171;-73
2023/11/27 12:36:06;;;;;;;3.10;1.90;;;16.00;63.70;;;;;;5052756;28;20265;-71
2023/11/27 12:38:32;;;;;;;3.70;1.73;;;16.00;64.00;;;;;;5053427;28;20179;-74
2023/11/27 12:41:03;;;;;;;3.28;1.90;;;16.00;63.80;;;;;;5052533;28;20538;-78
2023/11/27 12:43:33;;;;;;;3.17;1.92;;;16.00;64.00;;;;;;5052674;28;20168;-74
2023/11/27 12:45:59;;;;;;;5.05;1.95;;;16.00;63.80;;;;;;5052795;28;20168;-75